createdAt,value
2022-08-05T00:01:36.008Z,4.50
2022-08-05T00:04:19.546Z,5.57
2022-08-05T00:06:51.826Z,4.88
2022-08-05T00:09:20.213Z,4.45
2022-08-05T00:11:55.904Z,4.70
2022-08-05T00:14:29.034Z,4.55
2022-08-05T00:16:57.742Z,4.30
2022-08-05T00:19:33.117Z,4.03
2022-08-05T00:22:03.032Z,3.88
2022-08-05T00:24:32.176Z,4.43
2022-08-05T00:27:01.530Z,4.60
2022-08-05T00:29:32.927Z,5.15
2022-08-05T00:32:12.837Z,4.53
2022-08-05T00:35:03.826Z,5.65
2022-08-05T00:37:50.823Z,4.18
2022-08-05T00:40:27.796Z,4.90
2022-08-05T00:43:02.254Z,4.90
2022-08-05T00:45:38.971Z,5.07
2022-08-05T00:48:13.425Z,4.65
2022-08-05T00:50:44.243Z,5.03
2022-08-05T00:54:01.110Z,3.60
2022-08-05T00:56:05.641Z,5.55
2022-08-05T00:58:36.929Z,3.88
2022-08-05T01:01:08.575Z,5.28
2022-08-05T01:03:38.354Z,5.18
2022-08-05T01:06:11.309Z,5.22
2022-08-05T01:08:44.824Z,5.95
2022-08-05T01:11:33.601Z,4.70
2022-08-05T01:14:27.819Z,4.60
2022-08-05T01:17:03.038Z,5.20
2022-08-05T01:20:02.214Z,4.80
2022-08-05T01:23:15.000Z,4.55
2022-08-05T01:26:03.452Z,5.32
2022-08-05T01:28:51.333Z,4.75
2022-08-05T01:31:42.691Z,5.10
2022-08-05T01:34:19.811Z,4.90
2022-08-05T01:37:00.653Z,4.65
2022-08-05T01:39:45.693Z,4.18
2022-08-05T01:42:17.381Z,7.30
2022-08-05T01:44:53.897Z,3.90
2022-08-05T01:47:24.253Z,7.07
2022-08-05T01:50:02.683Z,45.67
2022-08-05T01:52:32.543Z,57.90
2022-08-05T01:55:05.586Z,65.88
2022-08-05T01:58:29.224Z,57.05
2022-08-05T02:00:35.569Z,48.90
2022-08-05T02:03:32.000Z,40.13
2022-08-05T02:06:33.661Z,32.75
2022-08-05T02:08:57.855Z,12.48
2022-08-05T02:11:33.973Z,20.08
2022-08-05T02:14:31.885Z,18.73
2022-08-05T02:17:17.016Z,15.85
2022-08-05T02:20:04.381Z,14.10
2022-08-05T02:22:41.880Z,15.07
2022-08-05T02:25:16.068Z,8.50
2022-08-05T02:27:59.576Z,7.07
2022-08-05T02:30:37.603Z,6.65
2022-08-05T02:33:24.523Z,5.43
2022-08-05T02:36:06.556Z,5.88
2022-08-05T02:38:38.332Z,4.97
2022-08-05T02:41:14.780Z,4.97
2022-08-05T02:44:06.137Z,5.22
2022-08-05T02:46:53.331Z,5.72
2022-08-05T02:49:26.114Z,6.00
2022-08-05T02:52:03.514Z,6.75
2022-08-05T02:54:37.414Z,5.70
2022-08-05T02:57:10.139Z,6.68
2022-08-05T02:59:56.336Z,5.93
2022-08-05T03:04:58.607Z,5.90
2022-08-05T03:08:00.912Z,6.97
2022-08-05T03:10:24.343Z,7.07
2022-08-05T03:12:54.267Z,7.40
2022-08-05T03:15:23.989Z,7.45
2022-08-05T03:17:57.488Z,6.40
2022-08-05T03:20:26.380Z,7.22
2022-08-05T03:22:57.756Z,7.78
2022-08-05T03:25:32.552Z,7.85
2022-08-05T03:28:07.086Z,7.13
2022-08-05T03:30:38.255Z,7.50
2022-08-05T03:33:09.273Z,7.18
2022-08-05T03:35:41.005Z,6.97
2022-08-05T03:38:14.360Z,7.68
2022-08-05T03:40:45.387Z,7.07
2022-08-05T03:44:09.636Z,7.05
2022-08-05T03:46:05.416Z,6.68
2022-08-05T03:48:36.721Z,6.35
2022-08-05T03:52:37.774Z,6.68
2022-08-05T03:55:52.227Z,6.43
2022-08-05T03:56:53.194Z,7.13
2022-08-05T03:59:29.036Z,5.50
2022-08-05T04:02:17.521Z,6.55
2022-08-05T04:05:04.339Z,6.63
2022-08-05T04:07:57.746Z,9.65
2022-08-05T04:10:37.182Z,7.13
2022-08-05T04:13:07.683Z,6.97
2022-08-05T04:15:36.053Z,6.82
2022-08-05T04:18:06.879Z,5.28
2022-08-05T04:20:35.993Z,6.63
2022-08-05T04:23:03.668Z,6.18
2022-08-05T04:25:56.543Z,5.97
2022-08-05T04:28:20.419Z,6.13
2022-08-05T04:30:58.759Z,8.30
2022-08-05T04:34:17.428Z,7.07
2022-08-05T04:36:46.610Z,5.78
2022-08-05T04:39:06.611Z,5.85
2022-08-05T04:41:37.226Z,5.63
2022-08-05T04:44:09.484Z,5.28
2022-08-05T04:48:45.013Z,4.22
2022-08-05T04:51:14.236Z,4.63
2022-08-05T04:53:41.850Z,4.32
2022-08-05T04:56:33.657Z,4.70
2022-08-05T04:58:57.425Z,4.43
2022-08-05T05:02:05.574Z,3.40
2022-08-05T05:06:49.360Z,6.05
2022-08-05T05:09:19.724Z,4.97
2022-08-05T05:11:53.989Z,5.07
2022-08-05T05:14:31.899Z,4.22
2022-08-05T05:17:00.561Z,5.50
2022-08-05T05:19:36.598Z,4.90
2022-08-05T05:22:24.152Z,5.07
2022-08-05T05:25:00.327Z,4.82
2022-08-05T05:27:44.524Z,5.25
2022-08-05T05:30:29.419Z,4.55
2022-08-05T05:33:08.824Z,4.05
2022-08-05T05:35:45.813Z,4.72
2022-08-05T05:38:14.254Z,4.60
2022-08-05T05:40:49.599Z,4.60
2022-08-05T05:43:21.885Z,5.00
2022-08-05T05:45:55.340Z,4.80
2022-08-05T05:48:27.539Z,6.25
2022-08-05T05:50:55.536Z,5.40
2022-08-05T05:53:24.333Z,5.10
2022-08-05T05:56:00.667Z,4.55
2022-08-05T05:58:32.026Z,4.53
2022-08-05T06:01:02.231Z,3.55
2022-08-05T06:04:01.763Z,3.05
2022-08-05T06:06:30.932Z,4.50
2022-08-05T06:08:59.212Z,3.63
2022-08-05T06:11:28.798Z,4.10
2022-08-05T06:13:57.272Z,4.28
2022-08-05T06:16:30.644Z,3.33
2022-08-05T06:19:01.133Z,3.70
2022-08-05T06:21:37.254Z,2.75
2022-08-05T06:24:11.959Z,3.17
2022-08-05T06:26:52.215Z,2.40
2022-08-05T06:29:49.529Z,2.88
2022-08-05T06:32:20.821Z,3.17
2022-08-05T06:34:53.304Z,4.40
2022-08-05T06:37:55.896Z,3.00
2022-08-05T06:40:10.515Z,3.92
2022-08-05T06:42:39.748Z,4.05
2022-08-05T06:45:09.430Z,4.03
2022-08-05T06:48:47.134Z,3.17
2022-08-05T06:53:03.579Z,2.92
2022-08-05T06:55:36.249Z,4.05
2022-08-05T06:58:20.316Z,3.25
2022-08-05T07:00:52.636Z,3.58
2022-08-05T07:03:20.879Z,3.78
2022-08-05T07:05:55.922Z,3.78
2022-08-05T07:08:28.847Z,3.00
2022-08-05T07:10:56.686Z,3.85
2022-08-05T07:13:59.606Z,3.30
2022-08-05T07:17:59.722Z,2.58
2022-08-05T07:25:22.752Z,3.05
2022-08-05T07:27:58.585Z,2.42
2022-08-05T07:30:33.645Z,2.72
2022-08-05T07:33:09.074Z,2.75
2022-08-05T07:36:04.716Z,2.20
2022-08-05T07:38:33.335Z,2.78
2022-08-05T07:42:09.287Z,2.03
2022-08-05T07:43:59.040Z,2.28
2022-08-05T07:46:29.426Z,1.65
2022-08-05T07:49:05.377Z,1.85
2022-08-05T07:51:36.171Z,2.40
2022-08-05T07:54:08.356Z,2.55
2022-08-05T07:57:00.692Z,2.20
2022-08-05T07:59:39.103Z,1.98
2022-08-05T08:02:15.706Z,1.80
2022-08-05T08:04:46.870Z,2.40
2022-08-05T08:07:15.116Z,1.98
2022-08-05T08:09:43.556Z,2.40
2022-08-05T08:12:36.960Z,2.03
2022-08-05T08:15:04.359Z,2.13
2022-08-05T08:17:33.220Z,2.30
2022-08-05T08:20:21.454Z,1.90
2022-08-05T08:22:59.383Z,1.80
2022-08-05T08:26:00.520Z,1.52
2022-08-05T08:28:35.528Z,2.70
2022-08-05T08:31:06.846Z,0.93
2022-08-05T08:33:38.155Z,2.03
2022-08-05T08:38:56.983Z,1.60
2022-08-05T08:41:51.155Z,1.63
2022-08-05T08:45:21.057Z,1.45
2022-08-05T08:47:47.034Z,1.60
2022-08-05T08:50:06.178Z,1.60
2022-08-05T08:52:56.854Z,1.10
2022-08-05T08:56:01.811Z,1.48
2022-08-05T08:58:16.473Z,1.08
2022-08-05T09:00:44.970Z,0.98
2022-08-05T09:03:15.911Z,1.30
2022-08-05T09:06:08.459Z,1.70
2022-08-05T09:08:35.554Z,1.23
2022-08-05T09:11:13.757Z,1.60
2022-08-05T09:14:09.345Z,1.63
2022-08-05T09:16:31.869Z,1.30
2022-08-05T09:19:07.857Z,1.25
2022-08-05T09:22:23.427Z,1.08
2022-08-05T09:24:24.910Z,1.48
2022-08-05T09:29:20.812Z,0.95
2022-08-05T09:32:51.273Z,1.70
2022-08-05T09:34:56.636Z,1.30
2022-08-05T09:38:17.603Z,1.20
2022-08-05T09:40:30.912Z,1.38
2022-08-05T09:43:01.518Z,1.42
2022-08-05T09:46:07.369Z,1.58
2022-08-05T09:48:34.591Z,1.70
2022-08-05T09:51:14.775Z,1.70
2022-08-05T09:53:54.281Z,1.60
2022-08-05T09:56:29.225Z,1.63
2022-08-05T09:59:04.107Z,1.48
2022-08-05T10:01:39.716Z,1.20
2022-08-05T10:04:16.130Z,1.10
2022-08-05T10:07:06.123Z,1.48
2022-08-05T10:10:13.749Z,1.23
2022-08-05T10:12:49.246Z,1.25
2022-08-05T10:15:29.932Z,1.05
2022-08-05T10:18:17.267Z,1.60
2022-08-05T10:20:50.776Z,1.42
2022-08-05T10:23:59.235Z,1.00
2022-08-05T10:26:32.462Z,1.30
2022-08-05T10:29:03.006Z,1.10
2022-08-05T10:32:52.276Z,1.77
2022-08-05T10:34:25.935Z,1.05
2022-08-05T10:36:59.717Z,1.67
2022-08-05T10:39:59.236Z,2.15
2022-08-05T10:42:34.084Z,1.45
2022-08-05T10:45:21.434Z,1.67
2022-08-05T10:47:56.435Z,1.52
2022-08-05T10:51:03.249Z,2.00
2022-08-05T10:53:38.246Z,2.15
2022-08-05T10:56:14.661Z,1.75
2022-08-05T10:58:51.061Z,1.30
2022-08-05T11:01:28.210Z,1.83
2022-08-05T11:04:18.072Z,1.77
2022-08-05T11:07:06.891Z,1.88
2022-08-05T11:09:47.177Z,1.38
2022-08-05T11:12:41.311Z,1.10
2022-08-05T11:15:20.343Z,1.00
2022-08-05T11:17:59.323Z,0.95
2022-08-05T11:20:39.251Z,1.02
2022-08-05T11:24:04.240Z,1.20
2022-08-05T11:26:43.379Z,1.30
2022-08-05T11:29:38.343Z,1.60
2022-08-05T11:32:26.931Z,1.95
2022-08-05T11:34:57.980Z,1.98
2022-08-05T11:38:30.136Z,2.88
2022-08-05T11:41:15.486Z,2.20
2022-08-05T11:44:05.847Z,1.60
2022-08-05T11:46:58.422Z,1.40
2022-08-05T11:49:34.066Z,2.28
2022-08-05T11:52:11.494Z,2.25
2022-08-05T11:54:41.680Z,2.30
2022-08-05T11:57:25.583Z,3.13
2022-08-05T11:59:56.003Z,2.33
2022-08-05T12:02:32.547Z,2.00
2022-08-05T12:05:07.910Z,0.95
2022-08-05T12:08:07.567Z,1.30
2022-08-05T12:10:43.326Z,1.55
2022-08-05T12:13:18.458Z,0.88
2022-08-05T12:15:55.907Z,1.30
2022-08-05T12:18:34.725Z,0.80
2022-08-05T12:21:12.536Z,1.13
2022-08-05T12:23:43.295Z,1.10
2022-08-05T12:26:11.145Z,0.82
2022-08-05T12:28:38.974Z,1.77
2022-08-05T12:31:07.039Z,2.42
2022-08-05T12:36:09.769Z,1.83
2022-08-05T12:38:40.267Z,3.40
2022-08-05T12:41:13.345Z,1.83
2022-08-05T12:43:55.164Z,1.80
2022-08-05T12:46:29.301Z,1.77
2022-08-05T12:49:13.523Z,1.90
2022-08-05T12:52:10.719Z,1.23
2022-08-05T12:54:49.740Z,1.35
2022-08-05T12:57:23.264Z,2.55
2022-08-05T13:01:58.424Z,1.58
2022-08-05T13:02:47.446Z,1.20
2022-08-05T13:05:25.911Z,1.25
2022-08-05T13:08:07.319Z,1.13
2022-08-05T13:10:50.196Z,1.25
2022-08-05T13:14:04.904Z,1.90
2022-08-05T13:16:15.376Z,1.75
2022-08-05T13:18:58.707Z,1.83
2022-08-05T13:21:28.537Z,2.25
2022-08-05T13:24:08.688Z,1.30
2022-08-05T13:26:37.693Z,1.73
2022-08-05T13:29:09.032Z,1.40
2022-08-05T13:32:03.675Z,1.00
2022-08-05T13:34:26.502Z,1.67
2022-08-05T13:36:54.710Z,1.90
2022-08-05T13:40:14.313Z,1.95
2022-08-05T13:42:15.126Z,1.70
2022-08-05T13:44:45.735Z,1.20
2022-08-05T13:50:12.401Z,1.02
2022-08-05T13:52:45.766Z,1.10
2022-08-05T13:55:41.114Z,1.27
2022-08-05T13:58:07.010Z,1.13
2022-08-05T14:00:39.215Z,1.20
2022-08-05T14:03:11.102Z,0.90
2022-08-05T14:06:04.619Z,1.05
2022-08-05T14:08:32.589Z,1.25
2022-08-05T14:11:19.832Z,2.47
2022-08-05T14:13:48.559Z,3.28
2022-08-05T14:16:23.815Z,1.95
2022-08-05T14:18:51.708Z,2.97
2022-08-05T14:22:10.277Z,2.30
2022-08-05T14:24:11.045Z,3.00
2022-08-05T14:26:47.166Z,3.40
2022-08-05T14:29:26.938Z,2.13
2022-08-05T14:32:12.105Z,2.40
2022-08-05T14:34:44.163Z,2.90
2022-08-05T14:37:14.925Z,3.08
2022-08-05T14:39:49.277Z,2.92
2022-08-05T14:42:25.053Z,2.72
2022-08-05T14:44:53.609Z,2.88
2022-08-05T14:48:05.175Z,3.00
2022-08-05T14:50:18.277Z,2.70
2022-08-05T14:52:53.614Z,2.08
2022-08-05T14:55:24.778Z,2.85
2022-08-05T14:57:54.397Z,1.70
2022-08-05T15:00:28.182Z,2.63
2022-08-05T15:02:58.144Z,3.03
2022-08-05T15:05:30.200Z,2.42
2022-08-05T15:08:58.381Z,2.10
2022-08-05T15:11:04.361Z,2.22
2022-08-05T15:13:46.228Z,2.03
2022-08-05T15:16:18.435Z,2.45
2022-08-05T15:18:47.397Z,3.17
2022-08-05T15:23:49.076Z,2.33
2022-08-05T15:26:17.598Z,1.98
2022-08-05T15:28:59.968Z,1.85
2022-08-05T15:31:34.814Z,1.85
2022-08-05T15:34:18.468Z,0.90
2022-08-05T15:36:50.781Z,1.27
2022-08-05T15:41:01.025Z,1.70
2022-08-05T15:42:54.608Z,0.85
2022-08-05T15:44:55.218Z,0.80
2022-08-05T15:47:23.682Z,1.20
2022-08-05T15:49:58.452Z,0.90
2022-08-05T15:52:51.769Z,0.57
2022-08-05T15:55:16.568Z,1.30
2022-08-05T15:57:45.138Z,2.13
2022-08-05T16:00:16.722Z,2.25
2022-08-05T16:02:45.339Z,2.17
2022-08-05T16:05:15.142Z,2.70
2022-08-05T16:07:46.228Z,2.75
2022-08-05T16:10:14.380Z,3.95
2022-08-05T16:12:42.640Z,4.03
2022-08-05T16:15:10.727Z,3.78
2022-08-05T16:17:57.499Z,5.28
2022-08-05T16:20:26.197Z,2.92
2022-08-05T16:22:55.980Z,2.25
2022-08-05T16:25:32.234Z,1.83
2022-08-05T16:28:06.056Z,1.73
2022-08-05T16:30:36.083Z,1.70
2022-08-05T16:33:05.080Z,1.70
2022-08-05T16:35:41.876Z,1.60
2022-08-05T16:38:18.662Z,1.20
2022-08-05T16:41:00.109Z,2.08
2022-08-05T16:43:31.533Z,2.45
2022-08-05T16:46:04.549Z,2.05
2022-08-05T16:48:37.829Z,1.98
2022-08-05T16:51:10.232Z,2.20
2022-08-05T16:54:04.706Z,3.30
2022-08-05T16:56:31.196Z,3.10
2022-08-05T17:00:26.283Z,2.08
2022-08-05T17:03:09.137Z,2.42
2022-08-05T17:05:43.304Z,3.42
2022-08-05T17:08:10.936Z,4.68
2022-08-05T17:10:41.775Z,5.82
2022-08-05T17:13:16.933Z,4.68
2022-08-05T17:15:55.537Z,7.20
2022-08-05T17:18:35.326Z,7.53
2022-08-05T17:21:07.151Z,5.68
2022-08-05T17:24:04.856Z,5.28
2022-08-05T17:26:22.899Z,6.63
2022-08-05T17:28:51.242Z,6.80
2022-08-05T17:34:07.428Z,8.45
2022-08-05T17:36:40.566Z,7.18
2022-08-05T17:39:24.299Z,6.13
2022-08-05T17:42:17.518Z,6.47
2022-08-05T17:44:50.416Z,5.72
2022-08-05T17:47:22.302Z,7.13
2022-08-05T17:49:52.007Z,6.78
2022-08-05T17:52:54.840Z,5.57
2022-08-05T17:55:27.268Z,5.50
2022-08-05T17:58:04.299Z,4.95
2022-08-05T18:00:34.663Z,6.03
2022-08-05T18:03:03.577Z,6.85
2022-08-05T18:05:35.400Z,7.10
2022-08-05T18:08:04.758Z,5.93
2022-08-05T18:10:33.573Z,4.35
2022-08-05T18:13:02.024Z,6.20
2022-08-05T18:15:36.194Z,7.63
2022-08-05T18:18:10.908Z,6.20
2022-08-05T18:20:39.654Z,5.38
2022-08-05T18:23:11.425Z,5.93
2022-08-05T18:25:45.617Z,7.68
2022-08-05T18:28:17.589Z,5.22
2022-08-05T18:30:51.447Z,5.55
2022-08-05T18:33:24.280Z,5.43
2022-08-05T18:36:03.363Z,5.00
2022-08-05T18:38:36.376Z,4.60
2022-08-05T18:41:56.779Z,6.32
2022-08-05T18:43:55.592Z,6.53
2022-08-05T18:46:26.044Z,5.32
2022-08-05T18:48:57.001Z,5.68
2022-08-05T18:52:04.098Z,7.35
2022-08-05T18:54:33.100Z,6.00
2022-08-05T18:57:02.728Z,4.75
2022-08-05T18:59:43.778Z,5.07
2022-08-05T19:02:26.949Z,7.13
2022-08-05T19:05:02.687Z,6.93
2022-08-05T19:07:48.279Z,7.53
2022-08-05T19:10:28.557Z,6.90
2022-08-05T19:12:57.340Z,5.47
2022-08-05T19:15:59.109Z,7.72
2022-08-05T19:18:21.059Z,7.38
2022-08-05T19:20:54.489Z,6.15
2022-08-05T19:24:05.608Z,6.82
2022-08-05T19:26:20.438Z,6.68
2022-08-05T19:28:49.579Z,7.50
2022-08-05T19:31:19.430Z,9.95
2022-08-05T19:33:56.448Z,9.75
2022-08-05T19:36:29.257Z,9.32
2022-08-05T19:39:01.358Z,10.88
2022-08-05T19:41:58.033Z,9.85
2022-08-05T19:44:20.572Z,9.77
2022-08-05T19:46:50.111Z,9.15
2022-08-05T19:49:18.630Z,10.50
2022-08-05T19:54:37.557Z,10.25
2022-08-05T19:57:09.593Z,11.02
2022-08-05T19:59:55.890Z,9.40
2022-08-05T20:02:30.401Z,11.05
2022-08-05T20:04:59.894Z,12.43
2022-08-05T20:07:47.386Z,9.57
2022-08-05T20:10:17.502Z,9.45
2022-08-05T20:12:49.229Z,10.35
2022-08-05T20:15:48.272Z,10.05
2022-08-05T20:18:10.990Z,9.35
2022-08-05T20:20:56.631Z,12.18
2022-08-05T20:23:40.148Z,9.82
2022-08-05T20:26:17.705Z,11.48
2022-08-05T20:28:51.405Z,11.30
2022-08-05T20:31:28.304Z,10.90
2022-08-05T20:34:06.231Z,12.82
2022-08-05T20:36:38.939Z,12.18
2022-08-05T20:39:07.408Z,11.57
2022-08-05T20:41:44.439Z,11.70
2022-08-05T20:44:19.192Z,11.70
2022-08-05T20:47:03.609Z,7.68
2022-08-05T20:49:33.288Z,11.80
2022-08-05T20:52:10.683Z,12.80
2022-08-05T20:54:43.541Z,10.70
2022-08-05T20:57:43.078Z,11.27
2022-08-05T21:00:40.764Z,11.38
2022-08-05T21:03:08.036Z,9.88
2022-08-05T21:05:47.917Z,12.48
2022-08-05T21:08:41.272Z,12.05
2022-08-05T21:11:15.179Z,12.52
2022-08-05T21:14:02.577Z,10.20
2022-08-05T21:16:31.005Z,12.73
2022-08-05T21:19:03.723Z,11.88
2022-08-05T21:21:44.545Z,12.55
2022-08-05T21:24:19.499Z,10.70
2022-08-05T21:26:53.557Z,8.57
2022-08-05T21:29:31.805Z,9.63
2022-08-05T21:32:02.266Z,10.88
2022-08-05T21:34:31.737Z,12.75
2022-08-05T21:37:00.992Z,7.63
2022-08-05T21:39:29.820Z,10.05
2022-08-05T21:42:01.284Z,11.70
2022-08-05T21:44:31.690Z,10.35
2022-08-05T21:47:00.910Z,12.98
2022-08-05T21:49:58.951Z,10.57
2022-08-05T21:52:26.704Z,11.82
2022-08-05T21:55:06.360Z,11.18
2022-08-05T21:57:36.156Z,13.10
2022-08-05T22:00:10.738Z,11.00
2022-08-05T22:02:43.674Z,9.45
2022-08-05T22:05:12.920Z,11.52
2022-08-05T22:07:58.494Z,12.02
2022-08-05T22:10:29.209Z,13.30
2022-08-05T22:12:59.214Z,12.82
2022-08-05T22:16:01.781Z,12.93
2022-08-05T22:18:27.238Z,13.65
2022-08-05T22:20:55.768Z,13.27
2022-08-05T22:24:03.273Z,13.40
2022-08-05T22:26:51.562Z,12.40
2022-08-05T22:29:26.878Z,13.13
2022-08-05T22:31:59.225Z,12.52
2022-08-05T22:34:28.687Z,12.73
2022-08-05T22:37:03.719Z,14.07
2022-08-05T22:39:34.486Z,12.75
2022-08-05T22:42:10.518Z,13.63
2022-08-05T22:44:53.462Z,13.13
2022-08-05T22:47:30.106Z,12.32
2022-08-05T22:50:20.595Z,11.95
2022-08-05T22:52:52.412Z,10.77
2022-08-05T22:55:22.086Z,13.70
2022-08-05T22:57:53.863Z,13.18
2022-08-05T23:00:23.791Z,11.98
2022-08-05T23:02:53.447Z,12.90
2022-08-05T23:05:22.627Z,13.30
2022-08-05T23:07:51.545Z,13.35
2022-08-05T23:10:23.478Z,12.90
2022-08-05T23:12:55.023Z,12.88
2022-08-05T23:15:30.058Z,11.70
2022-08-05T23:18:06.187Z,13.18
2022-08-05T23:20:39.978Z,14.30
2022-08-05T23:23:11.317Z,13.82
2022-08-05T23:25:53.470Z,13.90
2022-08-05T23:28:26.873Z,14.57
2022-08-05T23:31:02.252Z,14.73
2022-08-05T23:34:03.996Z,13.68
2022-08-05T23:36:39.964Z,15.95
2022-08-05T23:39:17.419Z,15.43
2022-08-05T23:44:31.378Z,15.10
2022-08-05T23:47:02.595Z,12.55
2022-08-05T23:49:46.777Z,15.10
2022-08-05T23:52:27.692Z,14.77
2022-08-05T23:55:05.308Z,15.75
2022-08-05T23:57:35.256Z,14.55
